createdAt,value
2022-12-08T00:03:17.957Z,99930.25
2022-12-08T00:08:38.658Z,99902.66
2022-12-08T00:13:41.086Z,99911.84
2022-12-08T00:18:43.085Z,99899.94
2022-12-08T00:23:45.178Z,99893.16
2022-12-08T00:28:47.328Z,99888.88
2022-12-08T00:33:49.376Z,99888.03
2022-12-08T00:38:51.456Z,99890.56
2022-12-08T00:43:53.519Z,99877.00
2022-12-08T00:48:55.564Z,99876.53
2022-12-08T00:53:57.710Z,99876.31
2022-12-08T00:59:00.326Z,99862.94
2022-12-08T01:04:06.763Z,99881.38
2022-12-08T01:09:09.673Z,99868.69
2022-12-08T01:14:12.442Z,99836.78
2022-12-08T01:19:15.870Z,99893.31
2022-12-08T01:24:20.771Z,99881.19
2022-12-08T01:29:22.804Z,99900.31
2022-12-08T01:34:24.823Z,99869.44
2022-12-08T01:39:26.899Z,99853.47
2022-12-08T01:44:28.910Z,99859.63
2022-12-08T01:49:35.058Z,99865.72
2022-12-08T01:54:46.090Z,99880.25
2022-12-08T01:59:54.643Z,99922.22
2022-12-08T02:04:56.624Z,99864.78
2022-12-08T02:09:58.802Z,99882.16
2022-12-08T02:15:05.095Z,99866.06
2022-12-08T02:20:13.480Z,99880.59
2022-12-08T02:25:31.337Z,99860.50
2022-12-08T02:30:54.898Z,99864.00
2022-12-08T02:36:11.811Z,99858.84
2022-12-08T02:41:47.067Z,99833.88
2022-12-08T02:46:57.365Z,99816.41
2022-12-08T02:52:12.359Z,99809.28
2022-12-08T02:57:32.648Z,99816.16
2022-12-08T03:02:49.840Z,99835.97
2022-12-08T03:08:04.445Z,99848.78
2022-12-08T03:13:14.814Z,99826.53
2022-12-08T03:18:20.814Z,99798.56
2022-12-08T03:23:24.862Z,99803.72
2022-12-08T03:28:27.591Z,99817.06
2022-12-08T03:33:34.898Z,99784.63
2022-12-08T03:38:39.063Z,99814.59
2022-12-08T03:43:41.246Z,99797.00
2022-12-08T03:48:43.773Z,99764.84
2022-12-08T03:53:46.276Z,99816.47
2022-12-08T03:58:48.338Z,99782.66
2022-12-08T04:03:50.666Z,99792.50
2022-12-08T04:08:53.848Z,99821.75
2022-12-08T04:13:55.800Z,99742.75
2022-12-08T04:18:57.778Z,99792.84
2022-12-08T04:24:01.548Z,99753.00
2022-12-08T04:29:03.771Z,99763.66
2022-12-08T04:34:05.789Z,99751.66
2022-12-08T04:39:07.842Z,99796.38
2022-12-08T04:44:09.906Z,99795.47
2022-12-08T04:49:12.009Z,99771.44
2022-12-08T04:54:14.156Z,99756.56
2022-12-08T04:59:16.307Z,99807.63
2022-12-08T05:04:18.409Z,99786.97
2022-12-08T05:09:20.512Z,99776.47
2022-12-08T05:14:22.806Z,99759.09
2022-12-08T05:19:24.990Z,99753.03
2022-12-08T05:24:26.990Z,99772.50
2022-12-08T05:29:29.041Z,99755.31
2022-12-08T05:34:31.115Z,99755.25
2022-12-08T05:39:33.161Z,99748.97
2022-12-08T05:44:35.102Z,99756.75
2022-12-08T05:49:37.202Z,99781.28
2022-12-08T05:54:39.263Z,99762.91
2022-12-08T05:59:41.405Z,99758.44
2022-12-08T06:04:43.383Z,99783.19
2022-12-08T06:09:45.560Z,99759.34
2022-12-08T06:14:47.636Z,99751.53
2022-12-08T06:19:49.661Z,99743.88
2022-12-08T06:24:51.718Z,99743.63
2022-12-08T06:29:54.004Z,99767.91
2022-12-08T06:34:56.097Z,99747.34
2022-12-08T06:39:58.330Z,99765.16
2022-12-08T06:45:00.868Z,99766.06
2022-12-08T06:50:04.444Z,99755.03
2022-12-08T06:55:07.313Z,99744.47
2022-12-08T07:00:09.888Z,99761.31
2022-12-08T07:05:12.045Z,99778.41
2022-12-08T07:10:14.150Z,99769.63
2022-12-08T07:15:16.374Z,99776.59
2022-12-08T07:20:18.618Z,99777.00
2022-12-08T07:25:20.901Z,99750.03
2022-12-08T07:30:23.115Z,99755.84
2022-12-08T07:35:25.097Z,99744.78
2022-12-08T07:40:27.262Z,99758.91
2022-12-08T07:45:31.627Z,99747.97
2022-12-08T07:50:34.402Z,99749.81
2022-12-08T07:55:40.764Z,99739.16
2022-12-08T08:00:42.837Z,99744.78
2022-12-08T08:05:44.975Z,99717.97
2022-12-08T08:10:47.568Z,99715.50
2022-12-08T08:15:49.738Z,99712.09
2022-12-08T08:20:51.837Z,99717.63
2022-12-08T08:25:54.753Z,99717.50
2022-12-08T08:30:57.501Z,99722.41
2022-12-08T08:36:00.107Z,99722.28
2022-12-08T08:41:07.870Z,99704.44
2022-12-08T08:46:11.198Z,99717.53
2022-12-08T08:51:14.730Z,99708.81
2022-12-08T08:56:19.526Z,99705.84
2022-12-08T09:01:24.918Z,99726.72
2022-12-08T09:06:28.564Z,99729.81
2022-12-08T09:11:32.974Z,99714.59
2022-12-08T09:16:40.377Z,99725.69
2022-12-08T09:21:44.103Z,99685.13
2022-12-08T09:26:47.239Z,99711.16
2022-12-08T09:31:49.295Z,99699.72
2022-12-08T09:36:51.371Z,99696.97
2022-12-08T09:42:11.918Z,99673.38
2022-12-08T09:47:41.493Z,99682.69
2022-12-08T09:52:54.270Z,99697.81
2022-12-08T09:58:03.288Z,99677.31
2022-12-08T10:03:16.422Z,99687.06
2022-12-08T10:08:34.650Z,99673.00
2022-12-08T10:14:06.793Z,99683.66
2022-12-08T10:19:18.152Z,99678.50
2022-12-08T10:24:31.768Z,99678.13
2022-12-08T10:29:35.042Z,99694.31
2022-12-08T10:35:11.012Z,99690.63
2022-12-08T10:40:18.077Z,99682.75
2022-12-08T10:45:23.367Z,99676.09
2022-12-08T10:50:32.406Z,99671.13
2022-12-08T10:55:41.880Z,99676.94
2022-12-08T11:00:44.119Z,99677.56
2022-12-08T11:05:46.991Z,99677.19
2022-12-08T11:10:49.224Z,99675.59
2022-12-08T11:15:52.527Z,99672.09
2022-12-08T11:21:13.143Z,99668.78
2022-12-08T11:26:29.799Z,99654.47
2022-12-08T11:31:38.552Z,99661.75
2022-12-08T11:36:40.680Z,99663.50
2022-12-08T11:41:46.123Z,99661.44
2022-12-08T11:47:02.573Z,99657.94
2022-12-08T11:52:13.324Z,99673.38
2022-12-08T11:57:20.970Z,99671.84
2022-12-08T12:02:31.909Z,99654.16
2022-12-08T12:07:42.651Z,99676.03
2022-12-08T12:13:06.192Z,99686.03
2022-12-08T12:18:27.399Z,99698.81
2022-12-08T12:23:45.171Z,99673.66
2022-12-08T12:29:10.938Z,99671.91
2022-12-08T12:34:18.709Z,99677.84
2022-12-08T12:39:24.907Z,99671.81
2022-12-08T12:44:33.824Z,99693.25
2022-12-08T12:49:39.665Z,99683.53
2022-12-08T12:55:05.554Z,99692.06
2022-12-08T13:00:19.609Z,99719.53
2022-12-08T13:05:29.767Z,99709.09
2022-12-08T13:10:38.278Z,99704.00
2022-12-08T13:16:07.605Z,99735.34
2022-12-08T13:21:21.630Z,99709.72
2022-12-08T13:26:26.269Z,99699.13
2022-12-08T13:31:54.364Z,99694.28
2022-12-08T13:37:11.629Z,99705.41
2022-12-08T13:42:19.543Z,99706.69
2022-12-08T13:47:34.927Z,99704.94
2022-12-08T13:58:01.121Z,99716.19
2022-12-08T14:03:03.318Z,99694.59
2022-12-08T14:08:30.140Z,99707.38
2022-12-08T14:13:39.255Z,99701.00
2022-12-08T14:18:41.224Z,99669.88
2022-12-08T14:23:46.350Z,99717.88
2022-12-08T14:28:49.922Z,99716.44
2022-12-08T14:33:56.577Z,99723.28
2022-12-08T14:38:59.118Z,99695.59
2022-12-08T14:44:02.246Z,99694.28
2022-12-08T14:49:04.359Z,99721.91
2022-12-08T14:54:10.349Z,99730.16
2022-12-08T14:59:30.741Z,99753.03
2022-12-08T15:04:32.839Z,99754.28
2022-12-08T15:09:34.814Z,99756.56
2022-12-08T15:14:38.293Z,99765.34
2022-12-08T15:19:40.376Z,99759.69
2022-12-08T15:24:42.355Z,99761.06
2022-12-08T15:29:44.689Z,99788.47
2022-12-08T15:34:47.322Z,99769.34
2022-12-08T15:39:49.647Z,99768.00
2022-12-08T15:44:51.688Z,99778.56
2022-12-08T15:49:53.733Z,99784.97
2022-12-08T15:54:55.731Z,99778.03
2022-12-08T15:59:58.847Z,99779.38
2022-12-08T16:05:33.794Z,99794.53
2022-12-08T16:10:26.478Z,99781.16
2022-12-08T16:21:16.879Z,99776.72
2022-12-08T16:26:49.126Z,99790.91
2022-12-08T16:31:42.248Z,99783.28
2022-12-08T16:36:44.263Z,99749.47
2022-12-08T16:42:04.630Z,99781.38
2022-12-08T16:47:09.893Z,99780.09
2022-12-08T16:52:11.862Z,99779.53
2022-12-08T16:57:13.907Z,99774.94
2022-12-08T17:02:16.691Z,99779.72
2022-12-08T17:07:18.883Z,99785.59
2022-12-08T17:12:20.854Z,99780.31
2022-12-08T17:17:22.893Z,99781.38
2022-12-08T17:22:24.866Z,99777.88
2022-12-08T17:27:27.075Z,99771.94
2022-12-08T17:32:29.096Z,99786.34
2022-12-08T17:37:31.129Z,99770.94
2022-12-08T17:42:33.132Z,99774.06
2022-12-08T17:47:35.307Z,99765.34
2022-12-08T17:52:37.589Z,99754.38
2022-12-08T17:57:39.581Z,99767.88
2022-12-08T18:02:41.567Z,99782.59
2022-12-08T18:07:43.587Z,99797.31
2022-12-08T18:12:46.313Z,99786.94
2022-12-08T18:17:48.348Z,99788.47
2022-12-08T18:22:50.399Z,99796.25
2022-12-08T18:27:52.427Z,99806.50
2022-12-08T18:32:57.433Z,99793.06
2022-12-08T18:38:00.320Z,99795.50
2022-12-08T18:43:02.286Z,99815.13
2022-12-08T18:48:04.601Z,99812.47
2022-12-08T18:53:06.624Z,99834.13
2022-12-08T18:58:10.947Z,99796.88
2022-12-08T19:03:13.124Z,99795.72
2022-12-08T19:08:15.349Z,99808.69
2022-12-08T19:13:17.436Z,99814.06
2022-12-08T19:18:19.544Z,99812.22
2022-12-08T19:23:21.561Z,99824.03
2022-12-08T19:28:23.608Z,99813.88
2022-12-08T19:33:25.754Z,99819.69
2022-12-08T19:38:27.895Z,99828.97
2022-12-08T19:43:48.441Z,99816.75
2022-12-08T19:48:50.442Z,99812.22
2022-12-08T19:53:52.433Z,99817.47
2022-12-08T19:58:54.394Z,99838.00
2022-12-08T20:03:56.448Z,99831.22
2022-12-08T20:08:58.636Z,99813.88
2022-12-08T20:14:00.633Z,99814.31
2022-12-08T20:19:03.217Z,99837.09
2022-12-08T20:24:05.501Z,99837.84
2022-12-08T20:29:07.688Z,99852.41
2022-12-08T20:34:17.100Z,99852.09
2022-12-08T20:39:19.443Z,99859.69
2022-12-08T20:44:21.578Z,99858.03
2022-12-08T20:49:23.665Z,99839.50
2022-12-08T20:54:25.762Z,99848.50
2022-12-08T20:59:28.035Z,99857.09
2022-12-08T21:04:30.242Z,99841.25
2022-12-08T21:09:32.534Z,99846.13
2022-12-08T21:14:34.861Z,99866.31
2022-12-08T21:19:37.148Z,99849.81
2022-12-08T21:24:39.252Z,99834.06
2022-12-08T21:29:41.416Z,99837.81
2022-12-08T21:34:44.281Z,99846.53
2022-12-08T21:39:46.518Z,99813.16
2022-12-08T21:44:48.915Z,99850.06
2022-12-08T21:49:50.946Z,99856.16
2022-12-08T21:54:53.317Z,99864.88
2022-12-08T21:59:55.371Z,99865.31
2022-12-08T22:04:57.541Z,99864.22
2022-12-08T22:09:59.949Z,99854.31
2022-12-08T22:15:05.685Z,99861.78
2022-12-08T22:20:11.684Z,99870.66
2022-12-08T22:25:14.175Z,99850.88
2022-12-08T22:30:16.761Z,99874.06
2022-12-08T22:35:18.833Z,99855.81
2022-12-08T22:40:21.139Z,99857.16
2022-12-08T22:45:23.673Z,99864.88
2022-12-08T22:50:25.819Z,99882.78
2022-12-08T22:55:27.851Z,99861.59
2022-12-08T23:00:29.997Z,99882.88
2022-12-08T23:05:37.000Z,99881.50
2022-12-08T23:10:41.013Z,99885.03
2022-12-08T23:15:43.171Z,99881.44
2022-12-08T23:20:47.059Z,99878.06
2022-12-08T23:25:49.338Z,99849.44
2022-12-08T23:30:51.506Z,99882.34
2022-12-08T23:35:58.070Z,99883.84
2022-12-08T23:41:02.130Z,99880.59
2022-12-08T23:46:04.775Z,99894.75
2022-12-08T23:51:07.001Z,99890.41
2022-12-08T23:56:12.121Z,99890.31
